createdAt,value
2023-04-17T00:02:29.845Z,6.90
2023-04-17T00:04:57.228Z,6.90
2023-04-17T00:07:24.276Z,6.90
2023-04-17T00:09:51.347Z,6.90
2023-04-17T00:12:18.389Z,6.90
2023-04-17T00:14:45.507Z,6.80
2023-04-17T00:22:07.503Z,6.80
2023-04-17T00:29:30.134Z,6.70
2023-04-17T00:36:52.081Z,6.70
2023-04-17T00:39:19.253Z,6.60
2023-04-17T00:41:46.249Z,6.60
2023-04-17T00:49:10.012Z,6.50
2023-04-17T00:59:04.014Z,6.40
2023-04-17T01:01:31.078Z,6.30
2023-04-17T01:04:01.772Z,6.30
2023-04-17T01:06:29.057Z,6.30
2023-04-17T01:11:24.099Z,6.30
2023-04-17T01:13:51.677Z,6.30
2023-04-17T01:16:19.720Z,6.30
2023-04-17T01:18:48.203Z,6.30
2023-04-17T01:21:16.636Z,6.30
2023-04-17T01:23:46.929Z,6.30
2023-04-17T01:26:22.738Z,6.30
2023-04-17T01:28:56.121Z,6.30
2023-04-17T01:31:25.764Z,6.20
2023-04-17T01:33:53.204Z,6.10
2023-04-17T01:36:20.395Z,6.10
2023-04-17T01:38:47.513Z,6.00
2023-04-17T01:43:46.215Z,5.90
2023-04-17T01:46:14.148Z,5.80
2023-04-17T01:48:41.459Z,5.70
2023-04-17T01:51:09.074Z,5.60
2023-04-17T01:53:38.861Z,5.60
2023-04-17T01:56:06.335Z,5.60
2023-04-17T01:58:33.511Z,5.60
2023-04-17T02:01:00.737Z,5.70
2023-04-17T02:03:28.276Z,5.70
2023-04-17T02:05:55.578Z,5.60
2023-04-17T02:13:18.962Z,5.60
2023-04-17T02:15:46.039Z,5.70
2023-04-17T02:35:31.893Z,5.70
2023-04-17T02:40:27.819Z,5.50
2023-04-17T02:43:01.169Z,5.40
2023-04-17T02:53:03.052Z,5.10
2023-04-17T02:55:31.305Z,5.00
2023-04-17T03:02:55.460Z,4.90
2023-04-17T03:07:52.076Z,4.90
2023-04-17T03:10:19.535Z,4.80
2023-04-17T03:12:46.499Z,4.80
2023-04-17T03:15:13.808Z,4.70
2023-04-17T03:20:09.369Z,4.70
2023-04-17T03:22:36.720Z,4.60
2023-04-17T03:30:13.398Z,4.60
2023-04-17T03:32:44.286Z,4.70
2023-04-17T03:37:38.722Z,4.80
2023-04-17T03:45:03.237Z,4.80
2023-04-17T03:47:30.525Z,4.90
2023-04-17T03:54:58.055Z,4.90
2023-04-17T03:57:26.300Z,4.90
2023-04-17T03:59:53.977Z,4.90
2023-04-17T04:02:22.906Z,5.00
2023-04-17T04:09:49.426Z,5.00
2023-04-17T04:14:45.997Z,5.00
2023-04-17T04:17:15.234Z,5.00
2023-04-17T04:24:47.298Z,5.10
2023-04-17T04:29:48.703Z,5.10
2023-04-17T04:34:47.038Z,5.20
2023-04-17T04:42:21.722Z,5.40
2023-04-17T04:47:44.619Z,5.50
2023-04-17T04:57:52.796Z,5.70
2023-04-17T05:00:21.211Z,5.90
2023-04-17T05:12:58.284Z,6.60
2023-04-17T05:20:21.316Z,6.80
2023-04-17T05:22:53.840Z,6.80
2023-04-17T05:25:22.744Z,6.80
2023-04-17T05:37:56.080Z,7.20
2023-04-17T05:47:46.864Z,7.70
2023-04-17T05:50:15.439Z,7.80
2023-04-17T05:52:42.818Z,7.80
2023-04-17T06:00:11.844Z,8.20
2023-04-17T06:02:43.128Z,8.20
2023-04-17T06:07:45.853Z,8.50
2023-04-17T06:10:13.007Z,8.60
2023-04-17T06:15:11.901Z,8.70
2023-04-17T06:17:40.757Z,8.80
2023-04-17T06:20:11.149Z,8.90
2023-04-17T06:22:40.470Z,8.90
2023-04-17T06:25:08.273Z,9.10
2023-04-17T06:30:06.548Z,9.30
2023-04-17T06:35:11.519Z,9.40
2023-04-17T06:42:40.692Z,9.20
2023-04-17T06:45:12.534Z,9.20
2023-04-17T06:52:38.006Z,9.40
2023-04-17T06:55:05.750Z,9.30
2023-04-17T07:00:01.214Z,9.50
2023-04-17T07:02:28.331Z,9.50
2023-04-17T07:19:40.937Z,9.80
2023-04-17T07:24:36.942Z,9.70
2023-04-17T07:29:32.078Z,9.90
2023-04-17T07:51:49.400Z,11.60
2023-04-17T07:56:46.454Z,11.50
2023-04-17T07:59:14.150Z,11.70
2023-04-17T08:15:52.060Z,12.10
2023-04-17T08:18:19.031Z,11.80
2023-04-17T08:23:13.584Z,11.20
2023-04-17T08:30:35.472Z,11.80
2023-04-17T08:33:03.121Z,12.10
2023-04-17T08:37:59.811Z,12.50
2023-04-17T08:40:26.993Z,12.10
2023-04-17T08:42:54.891Z,12.10
2023-04-17T08:45:24.559Z,12.10
2023-04-17T08:47:51.731Z,12.10
2023-04-17T08:50:21.850Z,12.30
2023-04-17T08:52:52.459Z,12.40
2023-04-17T08:55:25.245Z,12.50
2023-04-17T08:58:01.440Z,12.60
2023-04-17T09:00:35.034Z,12.30
2023-04-17T09:03:07.901Z,12.60
2023-04-17T09:05:37.097Z,12.70
2023-04-17T09:08:25.981Z,12.60
2023-04-17T09:10:55.743Z,12.80
2023-04-17T09:13:25.550Z,10.40
2023-04-17T09:16:13.001Z,12.80
2023-04-17T09:18:46.181Z,12.70
2023-04-17T09:21:20.989Z,12.60
2023-04-17T09:23:58.805Z,12.50
2023-04-17T09:26:31.285Z,12.60
2023-04-17T09:29:05.071Z,12.30
2023-04-17T09:34:08.924Z,11.60
2023-04-17T09:36:38.386Z,11.40
2023-04-17T09:39:24.308Z,11.20
2023-04-17T09:42:03.709Z,11.30
2023-04-17T09:44:31.583Z,11.50
2023-04-17T09:47:01.051Z,11.70
2023-04-17T09:49:52.157Z,12.10
2023-04-17T09:52:23.395Z,12.40
2023-04-17T09:54:53.546Z,12.60
2023-04-17T09:59:48.819Z,12.50
2023-04-17T10:02:20.286Z,12.50
2023-04-17T10:04:47.895Z,12.40
2023-04-17T10:09:46.865Z,12.90
2023-04-17T10:12:20.498Z,12.70
2023-04-17T10:14:51.534Z,13.00
2023-04-17T10:17:31.649Z,13.00
2023-04-17T10:20:20.283Z,13.40
2023-04-17T10:22:56.033Z,13.10
2023-04-17T10:25:30.867Z,13.40
2023-04-17T10:28:02.423Z,13.90
2023-04-17T10:30:54.104Z,14.20
2023-04-17T10:33:27.099Z,14.80
2023-04-17T10:35:55.385Z,14.80
2023-04-17T10:38:36.493Z,15.00
2023-04-17T10:41:09.382Z,15.20
2023-04-17T10:43:42.409Z,16.20
2023-04-17T10:46:14.942Z,17.10
2023-04-17T10:48:52.825Z,16.90
2023-04-17T10:51:29.317Z,17.20
2023-04-17T10:53:58.480Z,17.20
2023-04-17T10:56:48.461Z,16.30
2023-04-17T10:59:18.987Z,14.70
2023-04-17T11:01:48.975Z,15.00
2023-04-17T11:04:31.828Z,15.00
2023-04-17T11:09:29.485Z,15.50
2023-04-17T11:12:03.494Z,15.50
2023-04-17T11:14:31.356Z,16.40
2023-04-17T11:19:26.496Z,17.20
2023-04-17T11:22:01.236Z,17.80
2023-04-17T11:24:31.504Z,17.90
2023-04-17T11:27:01.757Z,17.40
2023-04-17T11:29:29.504Z,17.80
2023-04-17T11:31:58.163Z,18.10
2023-04-17T11:34:28.483Z,18.10
2023-04-17T11:36:59.620Z,17.30
2023-04-17T11:39:31.678Z,17.10
2023-04-17T11:41:59.653Z,17.30
2023-04-17T11:44:29.367Z,16.20
2023-04-17T11:47:00.980Z,17.20
2023-04-17T11:49:38.323Z,16.00
2023-04-17T11:52:06.076Z,15.70
2023-04-17T11:54:38.441Z,15.30
2023-04-17T11:57:15.138Z,16.90
2023-04-17T11:59:45.327Z,17.60
2023-04-17T12:02:12.490Z,17.00
2023-04-17T12:07:22.830Z,15.80
2023-04-17T12:09:57.674Z,15.00
2023-04-17T12:12:24.932Z,14.60
2023-04-17T12:14:52.137Z,14.20
2023-04-17T12:19:51.753Z,14.10
2023-04-17T12:24:47.603Z,15.60
2023-04-17T12:27:14.906Z,17.40
2023-04-17T12:29:44.559Z,18.50
2023-04-17T12:34:40.340Z,16.90
2023-04-17T12:37:08.978Z,15.30
2023-04-17T12:39:36.014Z,15.20
2023-04-17T12:46:58.006Z,15.00
2023-04-17T12:49:25.266Z,16.40
2023-04-17T12:51:52.484Z,16.20
2023-04-17T12:56:47.095Z,17.10
2023-04-17T12:59:14.202Z,15.80
2023-04-17T13:01:42.436Z,15.20
2023-04-17T13:04:09.629Z,14.50
2023-04-17T13:06:36.855Z,13.80
2023-04-17T13:11:32.220Z,13.20
2023-04-17T13:13:59.190Z,13.30
2023-04-17T13:16:27.366Z,13.20
2023-04-17T13:18:54.452Z,13.10
2023-04-17T13:21:21.498Z,13.00
2023-04-17T13:26:16.069Z,13.10
2023-04-17T13:28:43.037Z,13.30
2023-04-17T13:31:10.155Z,13.50
2023-04-17T13:33:40.070Z,13.80
2023-04-17T13:36:08.020Z,13.90
2023-04-17T13:41:02.438Z,14.00
2023-04-17T13:43:29.396Z,13.70
2023-04-17T13:45:56.848Z,13.80
2023-04-17T13:48:24.198Z,13.30
2023-04-17T13:53:20.227Z,14.10
2023-04-17T14:00:43.143Z,14.20
2023-04-17T14:03:10.551Z,13.90
2023-04-17T14:08:05.209Z,14.10
2023-04-17T14:10:32.273Z,13.80
2023-04-17T14:15:28.838Z,13.60
2023-04-17T14:17:57.236Z,13.40
2023-04-17T14:25:21.790Z,13.40
2023-04-17T14:27:48.893Z,13.40
2023-04-17T14:35:10.976Z,12.90
2023-04-17T14:37:38.904Z,12.70
2023-04-17T14:40:07.819Z,12.40
2023-04-17T14:45:20.452Z,12.10
2023-04-17T14:47:48.689Z,11.90
2023-04-17T14:50:15.770Z,11.60
2023-04-17T14:52:42.792Z,11.20
2023-04-17T14:55:11.224Z,11.00
2023-04-17T14:57:39.145Z,10.80
2023-04-17T15:00:08.518Z,10.70
2023-04-17T15:02:38.623Z,10.80
2023-04-17T15:05:07.572Z,10.80
2023-04-17T15:10:02.727Z,11.00
2023-04-17T15:17:24.685Z,11.30
2023-04-17T15:24:47.428Z,11.30
2023-04-17T15:27:14.685Z,11.20
2023-04-17T15:29:41.898Z,11.20
2023-04-17T15:32:09.009Z,10.80
2023-04-17T15:37:07.014Z,10.10
2023-04-17T15:39:39.108Z,9.90
2023-04-17T15:42:11.005Z,9.80
2023-04-17T15:44:38.188Z,9.90
2023-04-17T15:47:06.412Z,10.00
2023-04-17T15:49:33.527Z,10.10
2023-04-17T15:54:31.755Z,10.10
2023-04-17T15:56:59.374Z,10.00
2023-04-17T15:59:26.491Z,10.10
2023-04-17T16:01:54.042Z,10.20
2023-04-17T16:04:21.287Z,10.30
2023-04-17T16:06:48.604Z,10.30
2023-04-17T16:09:19.738Z,10.40
2023-04-17T16:11:48.446Z,10.50
2023-04-17T16:14:15.575Z,10.60
2023-04-17T16:16:42.842Z,10.70
2023-04-17T16:19:10.369Z,10.80
2023-04-17T16:21:38.309Z,10.80
2023-04-17T16:24:05.520Z,10.80
2023-04-17T16:26:32.633Z,10.90
2023-04-17T16:29:00.688Z,10.80
2023-04-17T16:33:55.860Z,10.80
2023-04-17T16:36:22.912Z,10.70
2023-04-17T16:41:18.490Z,10.50
2023-04-17T16:43:46.703Z,10.40
2023-04-17T16:46:23.962Z,10.30
2023-04-17T16:48:55.816Z,10.20
2023-04-17T16:51:23.631Z,10.20
2023-04-17T16:53:51.475Z,10.20
2023-04-17T16:58:45.958Z,10.20
2023-04-17T17:01:12.994Z,10.30
2023-04-17T17:08:38.992Z,10.30
2023-04-17T17:11:06.190Z,10.20
2023-04-17T17:13:33.173Z,10.10
2023-04-17T17:16:00.392Z,10.00
2023-04-17T17:25:50.841Z,10.10
2023-04-17T17:28:18.040Z,10.20
2023-04-17T17:30:46.368Z,10.10
2023-04-17T17:35:40.877Z,9.90
2023-04-17T17:38:07.865Z,9.80
2023-04-17T17:40:36.597Z,9.60
2023-04-17T17:45:31.447Z,9.40
2023-04-17T17:52:53.697Z,9.20
2023-04-17T17:55:20.859Z,9.10
2023-04-17T17:57:49.669Z,9.00
2023-04-17T18:00:18.225Z,9.00
2023-04-17T18:02:45.484Z,9.00
2023-04-17T18:05:12.836Z,8.90
2023-04-17T18:07:40.820Z,8.90
2023-04-17T18:10:08.953Z,8.80
2023-04-17T18:12:35.995Z,8.70
2023-04-17T18:15:03.283Z,8.60
2023-04-17T18:17:30.370Z,8.60
2023-04-17T18:19:57.648Z,8.50
2023-04-17T18:22:24.712Z,8.40
2023-04-17T18:24:55.803Z,8.40
2023-04-17T18:29:51.515Z,8.20
2023-04-17T18:32:18.802Z,8.20
2023-04-17T18:34:49.032Z,8.10
2023-04-17T18:37:18.100Z,8.10
2023-04-17T18:42:12.898Z,8.00
2023-04-17T18:44:39.999Z,7.90
2023-04-17T18:47:07.050Z,7.90
2023-04-17T18:49:34.324Z,7.90
2023-04-17T18:52:03.222Z,7.90
2023-04-17T18:54:30.398Z,7.90
2023-04-17T18:56:57.958Z,8.00
2023-04-17T18:59:26.230Z,8.00
2023-04-17T19:01:53.284Z,8.00
2023-04-17T19:04:21.603Z,8.00
2023-04-17T19:06:48.696Z,8.00
2023-04-17T19:09:15.683Z,7.90
2023-04-17T19:11:43.050Z,7.90
2023-04-17T19:14:10.131Z,7.90
2023-04-17T19:16:37.615Z,7.90
2023-04-17T19:19:05.574Z,7.90
2023-04-17T19:24:00.174Z,7.90
2023-04-17T19:26:27.332Z,7.90
2023-04-17T19:28:55.939Z,7.90
2023-04-17T19:31:23.105Z,7.80
2023-04-17T19:33:52.924Z,7.80
2023-04-17T19:38:47.524Z,7.70
2023-04-17T19:41:18.461Z,7.60
2023-04-17T19:43:51.259Z,7.50
2023-04-17T19:46:21.114Z,7.50
2023-04-17T19:51:17.234Z,7.40
2023-04-17T19:53:47.968Z,7.30
2023-04-17T19:56:15.494Z,7.30
2023-04-17T19:58:42.892Z,7.20
2023-04-17T20:01:10.067Z,7.30
2023-04-17T20:03:39.225Z,7.30
2023-04-17T20:06:07.423Z,7.30
2023-04-17T20:08:34.702Z,7.30
2023-04-17T20:13:30.296Z,7.20
2023-04-17T20:15:57.427Z,7.20
2023-04-17T20:18:24.956Z,7.10
2023-04-17T20:20:54.085Z,7.10
2023-04-17T20:23:24.447Z,7.10
2023-04-17T20:25:51.632Z,7.00
2023-04-17T20:28:19.778Z,7.00
2023-04-17T20:33:14.527Z,6.90
2023-04-17T20:35:42.199Z,6.80
2023-04-17T20:38:09.194Z,6.70
2023-04-17T20:47:58.652Z,6.40
2023-04-17T20:50:25.865Z,6.40
2023-04-17T20:57:48.406Z,6.30
2023-04-17T21:00:16.317Z,6.20
2023-04-17T21:05:11.166Z,6.20
2023-04-17T21:07:38.224Z,6.30
2023-04-17T21:10:06.315Z,6.10
2023-04-17T21:12:34.994Z,6.10
2023-04-17T21:15:02.325Z,6.10
2023-04-17T21:22:24.416Z,6.10
2023-04-17T21:24:51.501Z,6.10
2023-04-17T21:27:18.543Z,6.20
2023-04-17T21:29:45.547Z,6.30
2023-04-17T21:32:12.578Z,6.30
2023-04-17T21:34:39.728Z,6.40
2023-04-17T21:39:34.204Z,6.40
2023-04-17T21:42:01.896Z,6.50
2023-04-17T21:44:29.013Z,6.60
2023-04-17T21:46:56.033Z,6.60
2023-04-17T21:49:23.480Z,6.60
2023-04-17T21:51:50.577Z,6.60
2023-04-17T21:54:17.604Z,6.60
2023-04-17T21:56:44.629Z,6.70
2023-04-17T21:59:11.575Z,6.70
2023-04-17T22:01:38.703Z,6.70
2023-04-17T22:04:05.776Z,6.80
2023-04-17T22:06:36.747Z,6.80
2023-04-17T22:09:04.902Z,6.80
2023-04-17T22:11:32.140Z,6.80
2023-04-17T22:16:26.781Z,6.80
2023-04-17T22:18:54.247Z,6.80
2023-04-17T22:21:21.278Z,6.80
2023-04-17T22:23:48.288Z,6.70
2023-04-17T22:26:15.490Z,6.70
2023-04-17T22:28:42.633Z,6.70
2023-04-17T22:31:10.004Z,6.80
2023-04-17T22:33:37.758Z,6.70
2023-04-17T22:36:04.914Z,6.60
2023-04-17T22:40:59.685Z,6.60
2023-04-17T22:53:19.324Z,6.40
2023-04-17T23:00:42.138Z,6.30
2023-04-17T23:08:04.355Z,6.20
2023-04-17T23:12:58.827Z,6.10
2023-04-17T23:20:20.888Z,6.10
2023-04-17T23:22:48.097Z,6.10
2023-04-17T23:25:15.149Z,6.00
2023-04-17T23:27:42.225Z,6.00
2023-04-17T23:30:09.816Z,6.00
2023-04-17T23:32:36.876Z,6.00
2023-04-17T23:40:01.192Z,5.80
2023-04-17T23:42:28.359Z,5.80
2023-04-17T23:44:55.493Z,5.80
2023-04-17T23:52:19.247Z,5.80
2023-04-17T23:54:47.344Z,5.80
2023-04-17T23:59:41.769Z,5.80
